X  Schliessen METAR Luftfahrt Wetterdaten     EDHL Lübeck Blankensee Airport
Temperatur
31°C Temperatur
15°C Taupunkt
38% Feuchtigkeit



Wind
11 km/h
7 mph
3 m/s
6 KTS



160°
SSO
Aktuelle Wetterlage

Klar Klar
Luftdruck 1006.77 (hPa) - 29.73 (inHg)
Sichtweite 6 (Meile) - 9.7 (Km)
Flughafen
Flughafen Code EDHL

Position : Lübeck Blankensee Airport
Entfernung: 78 (Km)

Metar:
EDHL 211320Z 16006KT 100V210 CAVOK 31/15 Q1007

Zeit: 21-07-2024 13:20 CEST